sensor_id;sensor_type;location;lat;lon;timestamp;temperature;humidity
25058;DHT22;13057;50.978;11.034;2022-12-10T00:01:34;3.90;99.90
25058;DHT22;13057;50.978;11.034;2022-12-10T00:04:01;3.90;99.90
25058;DHT22;13057;50.978;11.034;2022-12-10T00:06:31;3.80;99.90
25058;DHT22;13057;50.978;11.034;2022-12-10T00:08:59;3.70;99.90
25058;DHT22;13057;50.978;11.034;2022-12-10T00:11:25;3.80;99.90
25058;DHT22;13057;50.978;11.034;2022-12-10T00:13:52;3.80;99.90
25058;DHT22;13057;50.978;11.034;2022-12-10T00:16:19;3.80;99.90
25058;DHT22;13057;50.978;11.034;2022-12-10T00:18:46;3.80;99.90
25058;DHT22;13057;50.978;11.034;2022-12-10T00:21:15;3.70;99.90
25058;DHT22;13057;50.978;11.034;2022-12-10T00:23:42;3.80;99.90
25058;DHT22;13057;50.978;11.034;2022-12-10T00:26:14;3.80;99.90
25058;DHT22;13057;50.978;11.034;2022-12-10T00:28:41;3.80;99.90
25058;DHT22;13057;50.978;11.034;2022-12-10T00:31:11;3.80;99.90
25058;DHT22;13057;50.978;11.034;2022-12-10T00:33:37;3.80;99.90
25058;DHT22;13057;50.978;11.034;2022-12-10T00:36:06;3.80;99.90
25058;DHT22;13057;50.978;11.034;2022-12-10T00:38:33;3.80;99.90
25058;DHT22;13057;50.978;11.034;2022-12-10T00:40:59;3.70;99.90
25058;DHT22;13057;50.978;11.034;2022-12-10T00:43:26;3.70;99.90
25058;DHT22;13057;50.978;11.034;2022-12-10T00:45:52;3.70;99.90
25058;DHT22;13057;50.978;11.034;2022-12-10T00:48:18;3.70;99.90
25058;DHT22;13057;50.978;11.034;2022-12-10T00:50:44;3.70;99.90
25058;DHT22;13057;50.978;11.034;2022-12-10T00:53:10;3.60;99.90
25058;DHT22;13057;50.978;11.034;2022-12-10T00:55:36;3.60;99.90
25058;DHT22;13057;50.978;11.034;2022-12-10T00:58:01;3.60;99.90
25058;DHT22;13057;50.978;11.034;2022-12-10T01:00:27;3.60;99.90
25058;DHT22;13057;50.978;11.034;2022-12-10T01:02:53;3.50;99.90
25058;DHT22;13057;50.978;11.034;2022-12-10T01:05:19;3.40;99.90
25058;DHT22;13057;50.978;11.034;2022-12-10T01:07:45;3.40;99.90
25058;DHT22;13057;50.978;11.034;2022-12-10T01:10:10;3.40;99.90
25058;DHT22;13057;50.978;11.034;2022-12-10T01:12:37;3.30;99.90
25058;DHT22;13057;50.978;11.034;2022-12-10T01:15:03;3.30;99.90
25058;DHT22;13057;50.978;11.034;2022-12-10T01:17:29;3.30;99.90
25058;DHT22;13057;50.978;11.034;2022-12-10T01:19:54;3.30;99.90
25058;DHT22;13057;50.978;11.034;2022-12-10T01:22:20;3.30;99.90
25058;DHT22;13057;50.978;11.034;2022-12-10T01:24:46;3.30;99.90
25058;DHT22;13057;50.978;11.034;2022-12-10T01:27:12;3.20;99.90
25058;DHT22;13057;50.978;11.034;2022-12-10T01:29:38;3.30;99.90
25058;DHT22;13057;50.978;11.034;2022-12-10T01:32:04;3.30;99.90
25058;DHT22;13057;50.978;11.034;2022-12-10T01:34:30;3.40;99.90
25058;DHT22;13057;50.978;11.034;2022-12-10T01:36:56;3.30;99.90
25058;DHT22;13057;50.978;11.034;2022-12-10T01:39:22;3.40;99.90
25058;DHT22;13057;50.978;11.034;2022-12-10T01:41:53;3.50;99.90
25058;DHT22;13057;50.978;11.034;2022-12-10T01:47:21;3.50;99.90
25058;DHT22;13057;50.978;11.034;2022-12-10T01:49:47;3.40;99.90
25058;DHT22;13057;50.978;11.034;2022-12-10T01:52:13;3.30;99.90
25058;DHT22;13057;50.978;11.034;2022-12-10T01:54:42;3.30;99.90
25058;DHT22;13057;50.978;11.034;2022-12-10T01:57:18;3.30;99.90
25058;DHT22;13057;50.978;11.034;2022-12-10T01:59:48;3.40;99.90
25058;DHT22;13057;50.978;11.034;2022-12-10T02:02:26;3.30;99.90
25058;DHT22;13057;50.978;11.034;2022-12-10T02:05:13;3.30;99.90
25058;DHT22;13057;50.978;11.034;2022-12-10T02:08:27;3.30;99.90
25058;DHT22;13057;50.978;11.034;2022-12-10T02:10:52;3.30;99.90
25058;DHT22;13057;50.978;11.034;2022-12-10T02:13:31;3.20;99.90
25058;DHT22;13057;50.978;11.034;2022-12-10T02:16:06;3.20;99.90
25058;DHT22;13057;50.978;11.034;2022-12-10T02:18:48;3.10;99.90
25058;DHT22;13057;50.978;11.034;2022-12-10T02:21:23;3.10;99.90
25058;DHT22;13057;50.978;11.034;2022-12-10T02:23:58;3.20;99.90
25058;DHT22;13057;50.978;11.034;2022-12-10T02:26:49;3.20;99.90
25058;DHT22;13057;50.978;11.034;2022-12-10T02:29:22;3.20;99.90
25058;DHT22;13057;50.978;11.034;2022-12-10T02:31:53;3.30;99.90
25058;DHT22;13057;50.978;11.034;2022-12-10T02:34:23;3.30;99.90
25058;DHT22;13057;50.978;11.034;2022-12-10T02:36:52;3.20;99.90
25058;DHT22;13057;50.978;11.034;2022-12-10T02:39:24;3.20;99.90
25058;DHT22;13057;50.978;11.034;2022-12-10T02:41:55;3.20;99.90
25058;DHT22;13057;50.978;11.034;2022-12-10T02:44:25;3.20;99.90
25058;DHT22;13057;50.978;11.034;2022-12-10T02:47:01;3.30;99.90
25058;DHT22;13057;50.978;11.034;2022-12-10T02:49:28;3.30;99.90
25058;DHT22;13057;50.978;11.034;2022-12-10T02:51:56;3.30;99.90
25058;DHT22;13057;50.978;11.034;2022-12-10T02:54:47;3.30;99.90
25058;DHT22;13057;50.978;11.034;2022-12-10T02:57:28;3.20;99.90
25058;DHT22;13057;50.978;11.034;2022-12-10T03:00:12;3.10;99.90
25058;DHT22;13057;50.978;11.034;2022-12-10T03:02:58;3.10;99.90
25058;DHT22;13057;50.978;11.034;2022-12-10T03:05:42;3.10;99.90
25058;DHT22;13057;50.978;11.034;2022-12-10T03:08:18;3.10;99.90
25058;DHT22;13057;50.978;11.034;2022-12-10T03:10:50;3.20;99.90
25058;DHT22;13057;50.978;11.034;2022-12-10T03:13:27;3.20;99.90
25058;DHT22;13057;50.978;11.034;2022-12-10T03:16:02;3.30;99.90
25058;DHT22;13057;50.978;11.034;2022-12-10T03:18:32;3.30;99.90
25058;DHT22;13057;50.978;11.034;2022-12-10T03:21:04;3.30;99.90
25058;DHT22;13057;50.978;11.034;2022-12-10T03:23:36;3.30;99.90
25058;DHT22;13057;50.978;11.034;2022-12-10T03:26:04;3.40;99.90
25058;DHT22;13057;50.978;11.034;2022-12-10T03:28:45;3.50;99.90
25058;DHT22;13057;50.978;11.034;2022-12-10T03:31:13;3.50;99.90
25058;DHT22;13057;50.978;11.034;2022-12-10T03:33:40;3.40;99.90
25058;DHT22;13057;50.978;11.034;2022-12-10T03:36:09;3.30;99.90
25058;DHT22;13057;50.978;11.034;2022-12-10T03:38:37;3.30;99.90
25058;DHT22;13057;50.978;11.034;2022-12-10T03:41:09;3.20;99.90
25058;DHT22;13057;50.978;11.034;2022-12-10T03:43:52;3.20;99.90
25058;DHT22;13057;50.978;11.034;2022-12-10T03:46:18;3.20;99.90
25058;DHT22;13057;50.978;11.034;2022-12-10T03:48:53;3.30;99.90
25058;DHT22;13057;50.978;11.034;2022-12-10T03:51:23;3.30;99.90
25058;DHT22;13057;50.978;11.034;2022-12-10T03:53:49;3.20;99.90
25058;DHT22;13057;50.978;11.034;2022-12-10T03:56:17;3.20;99.90
25058;DHT22;13057;50.978;11.034;2022-12-10T03:58:44;3.20;99.90
25058;DHT22;13057;50.978;11.034;2022-12-10T04:01:10;3.20;99.90
25058;DHT22;13057;50.978;11.034;2022-12-10T04:03:42;3.10;99.90
25058;DHT22;13057;50.978;11.034;2022-12-10T04:06:12;3.10;99.90
25058;DHT22;13057;50.978;11.034;2022-12-10T04:08:42;3.10;99.90
25058;DHT22;13057;50.978;11.034;2022-12-10T04:11:12;3.10;99.90
25058;DHT22;13057;50.978;11.034;2022-12-10T04:13:46;3.00;99.90
25058;DHT22;13057;50.978;11.034;2022-12-10T04:16:25;3.10;99.90
25058;DHT22;13057;50.978;11.034;2022-12-10T04:21:24;3.00;99.90
25058;DHT22;13057;50.978;11.034;2022-12-10T04:24:03;3.10;99.90
25058;DHT22;13057;50.978;11.034;2022-12-10T04:26:52;3.10;99.90
25058;DHT22;13057;50.978;11.034;2022-12-10T04:29:25;3.20;99.90
25058;DHT22;13057;50.978;11.034;2022-12-10T04:31:52;3.30;99.90
25058;DHT22;13057;50.978;11.034;2022-12-10T04:34:27;3.30;99.90
25058;DHT22;13057;50.978;11.034;2022-12-10T04:36:57;3.20;99.90
25058;DHT22;13057;50.978;11.034;2022-12-10T04:39:26;3.20;99.90
25058;DHT22;13057;50.978;11.034;2022-12-10T04:41:55;3.10;99.90
25058;DHT22;13057;50.978;11.034;2022-12-10T04:44:26;3.10;99.90
25058;DHT22;13057;50.978;11.034;2022-12-10T04:46:59;3.10;99.90
25058;DHT22;13057;50.978;11.034;2022-12-10T04:49:30;3.00;99.90
25058;DHT22;13057;50.978;11.034;2022-12-10T04:52:01;3.10;99.90
25058;DHT22;13057;50.978;11.034;2022-12-10T04:54:30;3.10;99.90
25058;DHT22;13057;50.978;11.034;2022-12-10T04:57:09;3.10;99.90
25058;DHT22;13057;50.978;11.034;2022-12-10T04:59:38;3.00;99.90
25058;DHT22;13057;50.978;11.034;2022-12-10T05:02:09;3.00;99.90
25058;DHT22;13057;50.978;11.034;2022-12-10T05:04:39;3.00;99.90
25058;DHT22;13057;50.978;11.034;2022-12-10T05:07:05;3.00;99.90
25058;DHT22;13057;50.978;11.034;2022-12-10T05:09:40;3.00;99.90
25058;DHT22;13057;50.978;11.034;2022-12-10T05:12:09;3.00;99.90
25058;DHT22;13057;50.978;11.034;2022-12-10T05:14:43;3.00;99.90
25058;DHT22;13057;50.978;11.034;2022-12-10T05:17:11;2.90;99.90
25058;DHT22;13057;50.978;11.034;2022-12-10T05:19:40;3.00;99.90
25058;DHT22;13057;50.978;11.034;2022-12-10T05:22:07;3.00;99.90
25058;DHT22;13057;50.978;11.034;2022-12-10T05:24:48;3.00;99.90
25058;DHT22;13057;50.978;11.034;2022-12-10T05:27:19;3.10;99.90
25058;DHT22;13057;50.978;11.034;2022-12-10T05:29:48;3.10;99.90
25058;DHT22;13057;50.978;11.034;2022-12-10T05:32:19;3.00;99.90
25058;DHT22;13057;50.978;11.034;2022-12-10T05:34:48;3.10;99.90
25058;DHT22;13057;50.978;11.034;2022-12-10T05:37:14;3.10;99.90
25058;DHT22;13057;50.978;11.034;2022-12-10T05:39:49;3.10;99.90
25058;DHT22;13057;50.978;11.034;2022-12-10T05:42:18;3.10;99.90
25058;DHT22;13057;50.978;11.034;2022-12-10T05:44:47;3.00;99.90
25058;DHT22;13057;50.978;11.034;2022-12-10T05:47:13;3.10;99.90
25058;DHT22;13057;50.978;11.034;2022-12-10T05:49:39;3.00;99.90
25058;DHT22;13057;50.978;11.034;2022-12-10T05:52:11;3.00;99.90
25058;DHT22;13057;50.978;11.034;2022-12-10T05:54:42;3.10;99.90
25058;DHT22;13057;50.978;11.034;2022-12-10T05:57:08;3.10;99.90
25058;DHT22;13057;50.978;11.034;2022-12-10T05:59:48;3.10;99.90
25058;DHT22;13057;50.978;11.034;2022-12-10T06:02:16;3.10;99.90
25058;DHT22;13057;50.978;11.034;2022-12-10T06:04:42;3.00;99.90
25058;DHT22;13057;50.978;11.034;2022-12-10T06:07:13;3.00;99.90
25058;DHT22;13057;50.978;11.034;2022-12-10T06:09:42;3.00;99.90
25058;DHT22;13057;50.978;11.034;2022-12-10T06:12:13;3.00;99.90
25058;DHT22;13057;50.978;11.034;2022-12-10T06:14:39;3.00;99.90
25058;DHT22;13057;50.978;11.034;2022-12-10T06:17:13;3.00;99.90
25058;DHT22;13057;50.978;11.034;2022-12-10T06:19:42;2.90;99.90
25058;DHT22;13057;50.978;11.034;2022-12-10T06:22:08;2.90;99.90
25058;DHT22;13057;50.978;11.034;2022-12-10T06:24:42;3.00;99.90
25058;DHT22;13057;50.978;11.034;2022-12-10T06:27:08;3.00;99.90
25058;DHT22;13057;50.978;11.034;2022-12-10T06:29:35;3.00;99.90
25058;DHT22;13057;50.978;11.034;2022-12-10T06:32:04;3.00;99.90
25058;DHT22;13057;50.978;11.034;2022-12-10T06:34:33;3.00;99.90
25058;DHT22;13057;50.978;11.034;2022-12-10T06:37:03;3.00;99.90
25058;DHT22;13057;50.978;11.034;2022-12-10T06:39:49;2.90;99.90
25058;DHT22;13057;50.978;11.034;2022-12-10T06:42:29;2.90;99.90
25058;DHT22;13057;50.978;11.034;2022-12-10T06:45:06;3.00;99.90
25058;DHT22;13057;50.978;11.034;2022-12-10T06:47:38;3.00;99.90
25058;DHT22;13057;50.978;11.034;2022-12-10T06:50:07;3.00;99.90
25058;DHT22;13057;50.978;11.034;2022-12-10T06:52:38;3.00;99.90
25058;DHT22;13057;50.978;11.034;2022-12-10T06:55:11;2.90;99.90
25058;DHT22;13057;50.978;11.034;2022-12-10T06:57:40;3.00;99.90
25058;DHT22;13057;50.978;11.034;2022-12-10T07:00:11;3.00;99.90
25058;DHT22;13057;50.978;11.034;2022-12-10T07:02:41;3.00;99.90
25058;DHT22;13057;50.978;11.034;2022-12-10T07:05:08;2.90;99.90
25058;DHT22;13057;50.978;11.034;2022-12-10T07:07:35;2.90;99.90
25058;DHT22;13057;50.978;11.034;2022-12-10T07:10:06;2.90;99.90
25058;DHT22;13057;50.978;11.034;2022-12-10T07:12:34;2.90;99.90
25058;DHT22;13057;50.978;11.034;2022-12-10T07:15:00;2.90;99.90
25058;DHT22;13057;50.978;11.034;2022-12-10T07:17:26;2.90;99.90
25058;DHT22;13057;50.978;11.034;2022-12-10T07:19:57;3.00;99.90
25058;DHT22;13057;50.978;11.034;2022-12-10T07:22:26;3.00;99.90
25058;DHT22;13057;50.978;11.034;2022-12-10T07:24:58;2.90;99.90
25058;DHT22;13057;50.978;11.034;2022-12-10T07:27:24;2.90;99.90
25058;DHT22;13057;50.978;11.034;2022-12-10T07:29:50;2.90;99.90
25058;DHT22;13057;50.978;11.034;2022-12-10T07:32:17;2.80;99.90
25058;DHT22;13057;50.978;11.034;2022-12-10T07:34:43;2.90;99.90
25058;DHT22;13057;50.978;11.034;2022-12-10T07:37:09;2.90;99.90
25058;DHT22;13057;50.978;11.034;2022-12-10T07:39:38;2.90;99.90
25058;DHT22;13057;50.978;11.034;2022-12-10T07:42:06;2.90;99.90
25058;DHT22;13057;50.978;11.034;2022-12-10T07:44:35;2.80;99.90
25058;DHT22;13057;50.978;11.034;2022-12-10T07:47:04;2.80;99.90
25058;DHT22;13057;50.978;11.034;2022-12-10T07:49:30;2.80;99.90
25058;DHT22;13057;50.978;11.034;2022-12-10T07:51:56;2.80;99.90
25058;DHT22;13057;50.978;11.034;2022-12-10T07:54:25;2.80;99.90
25058;DHT22;13057;50.978;11.034;2022-12-10T07:56:53;2.80;99.90
25058;DHT22;13057;50.978;11.034;2022-12-10T07:59:19;2.80;99.90
25058;DHT22;13057;50.978;11.034;2022-12-10T08:01:45;2.80;99.90
25058;DHT22;13057;50.978;11.034;2022-12-10T08:04:15;2.90;99.90
25058;DHT22;13057;50.978;11.034;2022-12-10T08:06:41;2.80;99.90
25058;DHT22;13057;50.978;11.034;2022-12-10T08:09:10;2.80;99.90
25058;DHT22;13057;50.978;11.034;2022-12-10T08:11:37;2.70;99.90
25058;DHT22;13057;50.978;11.034;2022-12-10T08:14:03;2.70;99.90
25058;DHT22;13057;50.978;11.034;2022-12-10T08:16:34;2.70;99.90
25058;DHT22;13057;50.978;11.034;2022-12-10T08:19:03;2.80;99.90
25058;DHT22;13057;50.978;11.034;2022-12-10T08:21:32;2.90;99.90
25058;DHT22;13057;50.978;11.034;2022-12-10T08:23:59;2.90;99.90
25058;DHT22;13057;50.978;11.034;2022-12-10T08:26:33;2.90;99.90
25058;DHT22;13057;50.978;11.034;2022-12-10T08:29:01;2.90;99.90
25058;DHT22;13057;50.978;11.034;2022-12-10T08:31:28;2.90;99.90
25058;DHT22;13057;50.978;11.034;2022-12-10T08:33:54;2.90;99.90
25058;DHT22;13057;50.978;11.034;2022-12-10T08:36:23;2.90;99.90
25058;DHT22;13057;50.978;11.034;2022-12-10T08:38:49;2.80;99.90
25058;DHT22;13057;50.978;11.034;2022-12-10T08:41:18;2.80;99.90
25058;DHT22;13057;50.978;11.034;2022-12-10T08:43:45;2.80;99.90
25058;DHT22;13057;50.978;11.034;2022-12-10T08:46:24;2.80;99.90
25058;DHT22;13057;50.978;11.034;2022-12-10T08:48:52;2.90;99.90
25058;DHT22;13057;50.978;11.034;2022-12-10T08:51:19;2.90;99.90
25058;DHT22;13057;50.978;11.034;2022-12-10T08:53:50;2.80;99.90
25058;DHT22;13057;50.978;11.034;2022-12-10T08:56:19;2.90;99.90
25058;DHT22;13057;50.978;11.034;2022-12-10T08:58:47;2.90;99.90
25058;DHT22;13057;50.978;11.034;2022-12-10T09:01:18;3.00;99.90
25058;DHT22;13057;50.978;11.034;2022-12-10T09:03:49;3.10;99.90
25058;DHT22;13057;50.978;11.034;2022-12-10T09:06:21;3.00;99.90
25058;DHT22;13057;50.978;11.034;2022-12-10T09:08:56;3.00;99.90
25058;DHT22;13057;50.978;11.034;2022-12-10T09:11:29;3.00;99.90
25058;DHT22;13057;50.978;11.034;2022-12-10T09:14:03;3.00;99.90
25058;DHT22;13057;50.978;11.034;2022-12-10T09:16:34;3.00;99.90
25058;DHT22;13057;50.978;11.034;2022-12-10T09:19:02;3.00;99.90
25058;DHT22;13057;50.978;11.034;2022-12-10T09:21:29;3.00;99.90
25058;DHT22;13057;50.978;11.034;2022-12-10T09:23:58;3.00;99.90
25058;DHT22;13057;50.978;11.034;2022-12-10T09:26:32;3.00;99.90
25058;DHT22;13057;50.978;11.034;2022-12-10T09:28:58;2.90;99.90
25058;DHT22;13057;50.978;11.034;2022-12-10T09:31:25;2.80;99.90
25058;DHT22;13057;50.978;11.034;2022-12-10T09:33:52;2.90;99.90
25058;DHT22;13057;50.978;11.034;2022-12-10T09:36:19;2.80;99.90
25058;DHT22;13057;50.978;11.034;2022-12-10T09:38:46;2.80;99.90
25058;DHT22;13057;50.978;11.034;2022-12-10T09:41:47;2.80;99.90
25058;DHT22;13057;50.978;11.034;2022-12-10T09:44:42;2.90;99.90
25058;DHT22;13057;50.978;11.034;2022-12-10T09:47:12;2.90;99.90
25058;DHT22;13057;50.978;11.034;2022-12-10T09:49:57;2.80;99.90
25058;DHT22;13057;50.978;11.034;2022-12-10T09:52:35;2.80;99.90
25058;DHT22;13057;50.978;11.034;2022-12-10T09:55:05;2.80;99.90
25058;DHT22;13057;50.978;11.034;2022-12-10T09:57:39;3.00;99.90
25058;DHT22;13057;50.978;11.034;2022-12-10T10:00:21;3.10;99.90
25058;DHT22;13057;50.978;11.034;2022-12-10T10:02:49;3.00;99.90
25058;DHT22;13057;50.978;11.034;2022-12-10T10:05:26;3.00;99.90
25058;DHT22;13057;50.978;11.034;2022-12-10T10:07:55;3.10;99.90
25058;DHT22;13057;50.978;11.034;2022-12-10T10:10:33;3.00;99.90
25058;DHT22;13057;50.978;11.034;2022-12-10T10:13:20;2.90;99.90
25058;DHT22;13057;50.978;11.034;2022-12-10T10:15:47;3.00;99.90
25058;DHT22;13057;50.978;11.034;2022-12-10T10:18:30;3.00;99.90
25058;DHT22;13057;50.978;11.034;2022-12-10T10:21:00;3.00;99.90
25058;DHT22;13057;50.978;11.034;2022-12-10T10:23:26;3.00;99.90
25058;DHT22;13057;50.978;11.034;2022-12-10T10:25:52;3.00;99.90
25058;DHT22;13057;50.978;11.034;2022-12-10T10:28:21;2.90;99.90
25058;DHT22;13057;50.978;11.034;2022-12-10T10:30:47;2.90;99.90
25058;DHT22;13057;50.978;11.034;2022-12-10T10:33:15;3.00;99.90
25058;DHT22;13057;50.978;11.034;2022-12-10T10:35:48;3.00;99.90
25058;DHT22;13057;50.978;11.034;2022-12-10T10:38:18;2.90;99.90
25058;DHT22;13057;50.978;11.034;2022-12-10T10:40:51;2.90;99.90
25058;DHT22;13057;50.978;11.034;2022-12-10T10:43:23;2.80;99.90
25058;DHT22;13057;50.978;11.034;2022-12-10T10:45:52;2.90;99.90
25058;DHT22;13057;50.978;11.034;2022-12-10T10:48:22;3.00;99.90
25058;DHT22;13057;50.978;11.034;2022-12-10T10:50:52;2.90;99.90
25058;DHT22;13057;50.978;11.034;2022-12-10T10:53:26;3.00;99.90
25058;DHT22;13057;50.978;11.034;2022-12-10T10:55:56;2.90;99.90
25058;DHT22;13057;50.978;11.034;2022-12-10T10:58:25;2.90;99.90
25058;DHT22;13057;50.978;11.034;2022-12-10T11:00:57;2.80;99.90
25058;DHT22;13057;50.978;11.034;2022-12-10T11:03:24;2.80;99.90
25058;DHT22;13057;50.978;11.034;2022-12-10T11:05:50;2.80;99.90
25058;DHT22;13057;50.978;11.034;2022-12-10T11:08:18;2.90;99.90
25058;DHT22;13057;50.978;11.034;2022-12-10T11:10:51;3.00;99.90
25058;DHT22;13057;50.978;11.034;2022-12-10T11:13:29;3.00;99.90
25058;DHT22;13057;50.978;11.034;2022-12-10T11:15:59;2.90;99.90
25058;DHT22;13057;50.978;11.034;2022-12-10T11:18:31;2.90;99.90
25058;DHT22;13057;50.978;11.034;2022-12-10T11:21:05;2.90;99.90
25058;DHT22;13057;50.978;11.034;2022-12-10T11:23:38;2.90;99.90
25058;DHT22;13057;50.978;11.034;2022-12-10T11:26:28;2.90;99.90
25058;DHT22;13057;50.978;11.034;2022-12-10T11:29:16;2.90;99.90
25058;DHT22;13057;50.978;11.034;2022-12-10T11:32:05;2.90;99.90
25058;DHT22;13057;50.978;11.034;2022-12-10T11:34:54;3.00;99.90
25058;DHT22;13057;50.978;11.034;2022-12-10T11:37:31;3.00;99.90
25058;DHT22;13057;50.978;11.034;2022-12-10T11:40:32;2.90;99.90
25058;DHT22;13057;50.978;11.034;2022-12-10T11:43:29;2.90;99.90
25058;DHT22;13057;50.978;11.034;2022-12-10T11:48:58;2.80;99.90
25058;DHT22;13057;50.978;11.034;2022-12-10T11:51:35;2.80;99.90
25058;DHT22;13057;50.978;11.034;2022-12-10T11:54:30;2.80;99.90
25058;DHT22;13057;50.978;11.034;2022-12-10T11:57:09;2.80;99.90
25058;DHT22;13057;50.978;11.034;2022-12-10T11:59:56;2.90;99.90
25058;DHT22;13057;50.978;11.034;2022-12-10T12:02:55;2.80;99.90
25058;DHT22;13057;50.978;11.034;2022-12-10T12:05:41;2.80;99.90
25058;DHT22;13057;50.978;11.034;2022-12-10T12:08:28;2.80;99.90
25058;DHT22;13057;50.978;11.034;2022-12-10T12:11:19;2.80;99.90
25058;DHT22;13057;50.978;11.034;2022-12-10T12:16:37;2.70;99.90
25058;DHT22;13057;50.978;11.034;2022-12-10T12:19:16;2.70;99.90
25058;DHT22;13057;50.978;11.034;2022-12-10T12:21:45;2.70;99.90
25058;DHT22;13057;50.978;11.034;2022-12-10T12:24:20;2.80;99.90
25058;DHT22;13057;50.978;11.034;2022-12-10T12:26:54;2.70;99.90
25058;DHT22;13057;50.978;11.034;2022-12-10T12:29:27;2.80;99.90
25058;DHT22;13057;50.978;11.034;2022-12-10T12:32:04;2.80;99.90
25058;DHT22;13057;50.978;11.034;2022-12-10T12:34:45;2.80;99.90
25058;DHT22;13057;50.978;11.034;2022-12-10T12:37:17;2.70;99.90
25058;DHT22;13057;50.978;11.034;2022-12-10T12:39:51;2.70;99.90
25058;DHT22;13057;50.978;11.034;2022-12-10T12:42:35;2.70;99.90
25058;DHT22;13057;50.978;11.034;2022-12-10T12:45:15;2.60;99.90
25058;DHT22;13057;50.978;11.034;2022-12-10T12:47:48;2.60;99.90
25058;DHT22;13057;50.978;11.034;2022-12-10T12:53:04;2.50;99.90
25058;DHT22;13057;50.978;11.034;2022-12-10T12:55:53;2.60;99.90
25058;DHT22;13057;50.978;11.034;2022-12-10T12:58:38;2.60;99.90
25058;DHT22;13057;50.978;11.034;2022-12-10T13:01:24;2.60;99.90
25058;DHT22;13057;50.978;11.034;2022-12-10T13:03:54;2.70;99.90
25058;DHT22;13057;50.978;11.034;2022-12-10T13:06:28;2.60;99.90
25058;DHT22;13057;50.978;11.034;2022-12-10T13:09:16;2.60;99.90
25058;DHT22;13057;50.978;11.034;2022-12-10T13:12:26;2.60;99.90
25058;DHT22;13057;50.978;11.034;2022-12-10T13:15:00;2.60;99.90
25058;DHT22;13057;50.978;11.034;2022-12-10T13:17:36;2.60;99.90
25058;DHT22;13057;50.978;11.034;2022-12-10T13:20:28;2.50;99.90
25058;DHT22;13057;50.978;11.034;2022-12-10T13:22:58;2.50;99.90
25058;DHT22;13057;50.978;11.034;2022-12-10T13:25:39;2.60;99.90
25058;DHT22;13057;50.978;11.034;2022-12-10T13:28:22;2.60;99.90
25058;DHT22;13057;50.978;11.034;2022-12-10T13:31:19;2.70;99.90
25058;DHT22;13057;50.978;11.034;2022-12-10T13:34:06;2.70;99.90
25058;DHT22;13057;50.978;11.034;2022-12-10T13:37:05;2.70;99.90
25058;DHT22;13057;50.978;11.034;2022-12-10T13:39:34;2.70;99.90
25058;DHT22;13057;50.978;11.034;2022-12-10T13:42:26;2.60;99.90
25058;DHT22;13057;50.978;11.034;2022-12-10T13:45:25;2.70;99.90
25058;DHT22;13057;50.978;11.034;2022-12-10T13:47:55;2.80;99.90
25058;DHT22;13057;50.978;11.034;2022-12-10T13:50:44;2.70;99.90
25058;DHT22;13057;50.978;11.034;2022-12-10T13:53:24;2.70;99.90
25058;DHT22;13057;50.978;11.034;2022-12-10T13:56:14;2.70;99.90
25058;DHT22;13057;50.978;11.034;2022-12-10T13:58:58;2.80;99.90
25058;DHT22;13057;50.978;11.034;2022-12-10T14:01:50;2.60;99.90
25058;DHT22;13057;50.978;11.034;2022-12-10T14:07:12;2.80;99.90
25058;DHT22;13057;50.978;11.034;2022-12-10T14:09:50;2.80;99.90
25058;DHT22;13057;50.978;11.034;2022-12-10T14:12:20;2.70;99.90
25058;DHT22;13057;50.978;11.034;2022-12-10T14:14:55;2.60;99.90
25058;DHT22;13057;50.978;11.034;2022-12-10T14:17:29;2.50;99.90
25058;DHT22;13057;50.978;11.034;2022-12-10T14:19:56;2.40;99.90
25058;DHT22;13057;50.978;11.034;2022-12-10T14:22:30;2.30;99.90
25058;DHT22;13057;50.978;11.034;2022-12-10T14:25:00;2.40;99.90
25058;DHT22;13057;50.978;11.034;2022-12-10T14:27:27;2.60;99.90
25058;DHT22;13057;50.978;11.034;2022-12-10T14:29:59;2.60;99.90
25058;DHT22;13057;50.978;11.034;2022-12-10T14:32:31;2.60;99.90
25058;DHT22;13057;50.978;11.034;2022-12-10T14:34:59;2.40;99.90
25058;DHT22;13057;50.978;11.034;2022-12-10T14:37:27;2.40;99.90
25058;DHT22;13057;50.978;11.034;2022-12-10T14:39:55;2.40;99.90
25058;DHT22;13057;50.978;11.034;2022-12-10T14:42:22;2.50;99.90
25058;DHT22;13057;50.978;11.034;2022-12-10T14:44:56;2.40;99.90
25058;DHT22;13057;50.978;11.034;2022-12-10T14:47:22;2.40;99.90
25058;DHT22;13057;50.978;11.034;2022-12-10T14:49:50;2.30;99.90
25058;DHT22;13057;50.978;11.034;2022-12-10T14:52:19;2.30;99.90
25058;DHT22;13057;50.978;11.034;2022-12-10T14:54:46;2.30;99.90
25058;DHT22;13057;50.978;11.034;2022-12-10T14:57:28;2.40;99.90
25058;DHT22;13057;50.978;11.034;2022-12-10T15:00:09;2.40;99.90
25058;DHT22;13057;50.978;11.034;2022-12-10T15:02:39;2.20;99.90
25058;DHT22;13057;50.978;11.034;2022-12-10T15:05:16;2.20;99.90
25058;DHT22;13057;50.978;11.034;2022-12-10T15:07:52;2.20;99.90
25058;DHT22;13057;50.978;11.034;2022-12-10T15:10:38;2.20;99.90
25058;DHT22;13057;50.978;11.034;2022-12-10T15:13:07;2.10;99.90
25058;DHT22;13057;50.978;11.034;2022-12-10T15:15:41;2.00;99.90
25058;DHT22;13057;50.978;11.034;2022-12-10T15:18:15;2.00;99.90
25058;DHT22;13057;50.978;11.034;2022-12-10T15:20:47;1.90;99.90
25058;DHT22;13057;50.978;11.034;2022-12-10T15:23:34;2.00;99.90
25058;DHT22;13057;50.978;11.034;2022-12-10T15:26:15;2.10;99.90
25058;DHT22;13057;50.978;11.034;2022-12-10T15:28:42;2.00;99.90
25058;DHT22;13057;50.978;11.034;2022-12-10T15:31:20;2.00;99.90
25058;DHT22;13057;50.978;11.034;2022-12-10T15:33:52;2.00;99.90
25058;DHT22;13057;50.978;11.034;2022-12-10T15:36:32;1.90;99.90
25058;DHT22;13057;50.978;11.034;2022-12-10T15:39:18;2.00;99.90
25058;DHT22;13057;50.978;11.034;2022-12-10T15:41:49;1.90;99.90
25058;DHT22;13057;50.978;11.034;2022-12-10T15:44:37;1.90;99.90
25058;DHT22;13057;50.978;11.034;2022-12-10T15:47:20;1.90;99.90
25058;DHT22;13057;50.978;11.034;2022-12-10T15:49:47;1.90;99.90
25058;DHT22;13057;50.978;11.034;2022-12-10T15:52:18;2.10;99.90
25058;DHT22;13057;50.978;11.034;2022-12-10T15:54:46;2.20;99.90
25058;DHT22;13057;50.978;11.034;2022-12-10T15:57:19;2.20;99.90
25058;DHT22;13057;50.978;11.034;2022-12-10T15:59:47;2.10;99.90
25058;DHT22;13057;50.978;11.034;2022-12-10T16:02:35;2.20;99.90
25058;DHT22;13057;50.978;11.034;2022-12-10T16:05:10;2.30;99.90
25058;DHT22;13057;50.978;11.034;2022-12-10T16:07:36;2.30;99.90
25058;DHT22;13057;50.978;11.034;2022-12-10T16:10:02;2.20;99.90
25058;DHT22;13057;50.978;11.034;2022-12-10T16:12:29;2.20;99.90
25058;DHT22;13057;50.978;11.034;2022-12-10T16:14:56;2.10;99.90
25058;DHT22;13057;50.978;11.034;2022-12-10T16:17:26;2.10;99.90
25058;DHT22;13057;50.978;11.034;2022-12-10T16:19:59;2.20;99.90
25058;DHT22;13057;50.978;11.034;2022-12-10T16:22:28;2.10;99.90